sensor_id;sensor_type;location;lat;lon;timestamp;pressure;altitude;pressure_sealevel;temperature;humidity
3206;BME280;1615;53.602;11.418;2023-07-02T00:01:47;99845.28;;;17.24;100.00
3206;BME280;1615;53.602;11.418;2023-07-02T00:04:13;99825.03;;;17.04;100.00
3206;BME280;1615;53.602;11.418;2023-07-02T00:06:44;99783.34;;;16.82;100.00
3206;BME280;1615;53.602;11.418;2023-07-02T00:09:10;99874.16;;;17.23;100.00
3206;BME280;1615;53.602;11.418;2023-07-02T00:11:41;99925.38;;;17.29;100.00
3206;BME280;1615;53.602;11.418;2023-07-02T00:14:07;99871.13;;;17.28;100.00
3206;BME280;1615;53.602;11.418;2023-07-02T00:16:33;99828.72;;;16.93;100.00
3206;BME280;1615;53.602;11.418;2023-07-02T00:18:59;99642.31;;;15.77;100.00
3206;BME280;1615;53.602;11.418;2023-07-02T00:21:25;99801.03;;;16.62;100.00
3206;BME280;1615;53.602;11.418;2023-07-02T00:23:56;99834.78;;;16.83;100.00
3206;BME280;1615;53.602;11.418;2023-07-02T00:26:25;99843.97;;;16.87;100.00
3206;BME280;1615;53.602;11.418;2023-07-02T00:28:52;99783.50;;;16.42;100.00
3206;BME280;1615;53.602;11.418;2023-07-02T00:31:18;99877.66;;;16.89;100.00
3206;BME280;1615;53.602;11.418;2023-07-02T00:33:43;99873.53;;;16.83;100.00
3206;BME280;1615;53.602;11.418;2023-07-02T00:36:08;99619.75;;;15.32;100.00
3206;BME280;1615;53.602;11.418;2023-07-02T00:38:44;99754.66;;;16.28;100.00
3206;BME280;1615;53.602;11.418;2023-07-02T00:41:11;99819.22;;;16.63;100.00
3206;BME280;1615;53.602;11.418;2023-07-02T00:43:36;99860.13;;;16.85;100.00
3206;BME280;1615;53.602;11.418;2023-07-02T00:46:04;99883.00;;;16.82;100.00
3206;BME280;1615;53.602;11.418;2023-07-02T00:48:30;99885.94;;;16.89;100.00
3206;BME280;1615;53.602;11.418;2023-07-02T00:50:56;99804.63;;;16.35;100.00
3206;BME280;1615;53.602;11.418;2023-07-02T00:53:21;99770.00;;;16.25;100.00
3206;BME280;1615;53.602;11.418;2023-07-02T00:55:47;99852.19;;;16.68;100.00
3206;BME280;1615;53.602;11.418;2023-07-02T00:58:12;99816.28;;;16.56;100.00
3206;BME280;1615;53.602;11.418;2023-07-02T01:00:41;99812.09;;;16.46;100.00
3206;BME280;1615;53.602;11.418;2023-07-02T01:03:07;99774.41;;;16.42;100.00
3206;BME280;1615;53.602;11.418;2023-07-02T01:05:32;99828.03;;;16.53;100.00
3206;BME280;1615;53.602;11.418;2023-07-02T01:08:04;99844.44;;;16.73;100.00
3206;BME280;1615;53.602;11.418;2023-07-02T01:10:30;99767.06;;;16.34;100.00
3206;BME280;1615;53.602;11.418;2023-07-02T01:12:57;99763.38;;;16.14;100.00
3206;BME280;1615;53.602;11.418;2023-07-02T01:15:24;99866.13;;;16.87;100.00
3206;BME280;1615;53.602;11.418;2023-07-02T01:17:51;99900.31;;;16.79;100.00
3206;BME280;1615;53.602;11.418;2023-07-02T01:20:18;99826.44;;;16.52;100.00
3206;BME280;1615;53.602;11.418;2023-07-02T01:22:46;99860.94;;;16.70;100.00
3206;BME280;1615;53.602;11.418;2023-07-02T01:25:15;99856.03;;;16.63;100.00
3206;BME280;1615;53.602;11.418;2023-07-02T01:27:40;99640.81;;;15.24;100.00
3206;BME280;1615;53.602;11.418;2023-07-02T01:30:06;99836.44;;;16.41;100.00
3206;BME280;1615;53.602;11.418;2023-07-02T01:32:32;99869.69;;;16.56;100.00
3206;BME280;1615;53.602;11.418;2023-07-02T01:34:57;99764.31;;;15.91;100.00
3206;BME280;1615;53.602;11.418;2023-07-02T01:37:24;99858.47;;;16.53;100.00
3206;BME280;1615;53.602;11.418;2023-07-02T01:39:49;99725.63;;;15.63;100.00
3206;BME280;1615;53.602;11.418;2023-07-02T01:42:16;99841.41;;;16.35;100.00
3206;BME280;1615;53.602;11.418;2023-07-02T01:44:43;99784.69;;;15.86;100.00
3206;BME280;1615;53.602;11.418;2023-07-02T01:47:09;99864.31;;;16.36;100.00
3206;BME280;1615;53.602;11.418;2023-07-02T01:49:35;99706.28;;;15.24;100.00
3206;BME280;1615;53.602;11.418;2023-07-02T01:52:01;99868.25;;;16.35;100.00
3206;BME280;1615;53.602;11.418;2023-07-02T01:54:26;99831.69;;;16.14;100.00
3206;BME280;1615;53.602;11.418;2023-07-02T01:56:53;99860.38;;;16.37;100.00
3206;BME280;1615;53.602;11.418;2023-07-02T01:59:18;99865.66;;;16.54;100.00
3206;BME280;1615;53.602;11.418;2023-07-02T02:01:43;99747.72;;;15.91;100.00
3206;BME280;1615;53.602;11.418;2023-07-02T02:04:10;99816.13;;;16.37;100.00
3206;BME280;1615;53.602;11.418;2023-07-02T02:06:35;99779.34;;;16.21;100.00
3206;BME280;1615;53.602;11.418;2023-07-02T02:09:01;99808.06;;;16.44;100.00
3206;BME280;1615;53.602;11.418;2023-07-02T02:11:28;99531.53;;;14.80;100.00
3206;BME280;1615;53.602;11.418;2023-07-02T02:13:53;99806.19;;;16.79;100.00
3206;BME280;1615;53.602;11.418;2023-07-02T02:16:19;99715.63;;;16.02;100.00
3206;BME280;1615;53.602;11.418;2023-07-02T02:18:45;99806.19;;;16.79;100.00
3206;BME280;1615;53.602;11.418;2023-07-02T02:21:10;99759.44;;;16.43;100.00
3206;BME280;1615;53.602;11.418;2023-07-02T02:23:36;99726.34;;;16.19;100.00
3206;BME280;1615;53.602;11.418;2023-07-02T02:26:01;99823.25;;;16.81;100.00
3206;BME280;1615;53.602;11.418;2023-07-02T02:28:26;99844.41;;;16.89;100.00
3206;BME280;1615;53.602;11.418;2023-07-02T02:30:52;99836.91;;;16.74;100.00
3206;BME280;1615;53.602;11.418;2023-07-02T02:33:17;99895.31;;;17.00;100.00
3206;BME280;1615;53.602;11.418;2023-07-02T02:35:42;99633.91;;;15.58;100.00
3206;BME280;1615;53.602;11.418;2023-07-02T02:38:08;99770.25;;;16.36;100.00
3206;BME280;1615;53.602;11.418;2023-07-02T02:40:33;99818.63;;;16.69;100.00
3206;BME280;1615;53.602;11.418;2023-07-02T02:42:59;99878.00;;;16.87;100.00
3206;BME280;1615;53.602;11.418;2023-07-02T02:45:25;99659.72;;;15.50;100.00
3206;BME280;1615;53.602;11.418;2023-07-02T02:47:50;99844.41;;;16.89;100.00
3206;BME280;1615;53.602;11.418;2023-07-02T02:50:15;99865.22;;;16.98;100.00
3206;BME280;1615;53.602;11.418;2023-07-02T02:52:41;99837.34;;;16.91;100.00
3206;BME280;1615;53.602;11.418;2023-07-02T02:55:07;99858.91;;;16.98;100.00
3206;BME280;1615;53.602;11.418;2023-07-02T02:57:33;99851.56;;;16.90;100.00
3206;BME280;1615;53.602;11.418;2023-07-02T02:59:58;99865.59;;;16.97;100.00
3206;BME280;1615;53.602;11.418;2023-07-02T03:02:24;99794.66;;;16.46;100.00
3206;BME280;1615;53.602;11.418;2023-07-02T03:04:49;99853.97;;;16.91;100.00
3206;BME280;1615;53.602;11.418;2023-07-02T03:07:19;99870.13;;;17.05;100.00
3206;BME280;1615;53.602;11.418;2023-07-02T03:09:44;99835.59;;;16.83;100.00
3206;BME280;1615;53.602;11.418;2023-07-02T03:12:10;99832.00;;;16.83;100.00
3206;BME280;1615;53.602;11.418;2023-07-02T03:14:35;99822.00;;;16.78;100.00
3206;BME280;1615;53.602;11.418;2023-07-02T03:17:00;99869.72;;;17.03;100.00
3206;BME280;1615;53.602;11.418;2023-07-02T03:19:26;99750.22;;;16.39;100.00
3206;BME280;1615;53.602;11.418;2023-07-02T03:21:51;99825.84;;;16.74;100.00
3206;BME280;1615;53.602;11.418;2023-07-02T03:24:17;99878.97;;;16.95;100.00
3206;BME280;1615;53.602;11.418;2023-07-02T03:26:43;99839.41;;;16.79;100.00
3206;BME280;1615;53.602;11.418;2023-07-02T03:29:09;99844.50;;;16.77;100.00
3206;BME280;1615;53.602;11.418;2023-07-02T03:31:34;99825.84;;;16.74;100.00
3206;BME280;1615;53.602;11.418;2023-07-02T03:34:03;99861.22;;;17.11;100.00
3206;BME280;1615;53.602;11.418;2023-07-02T03:36:29;99781.72;;;16.65;100.00
3206;BME280;1615;53.602;11.418;2023-07-02T03:38:55;99848.72;;;17.02;100.00
3206;BME280;1615;53.602;11.418;2023-07-02T03:41:20;99858.25;;;17.20;100.00
3206;BME280;1615;53.602;11.418;2023-07-02T03:43:45;99810.94;;;16.94;100.00
3206;BME280;1615;53.602;11.418;2023-07-02T03:46:10;99802.47;;;16.87;100.00
3206;BME280;1615;53.602;11.418;2023-07-02T03:48:36;99851.53;;;17.21;100.00
3206;BME280;1615;53.602;11.418;2023-07-02T03:51:01;99823.53;;;17.07;100.00
3206;BME280;1615;53.602;11.418;2023-07-02T03:53:27;99809.94;;;17.02;100.00
3206;BME280;1615;53.602;11.418;2023-07-02T03:55:53;99872.66;;;17.41;100.00
3206;BME280;1615;53.602;11.418;2023-07-02T03:58:18;99854.66;;;17.35;100.00
3206;BME280;1615;53.602;11.418;2023-07-02T04:00:43;99836.38;;;17.15;100.00
3206;BME280;1615;53.602;11.418;2023-07-02T04:03:09;99756.81;;;16.65;100.00
3206;BME280;1615;53.602;11.418;2023-07-02T04:05:34;99840.31;;;17.14;100.00
3206;BME280;1615;53.602;11.418;2023-07-02T04:07:59;99868.50;;;17.35;100.00
3206;BME280;1615;53.602;11.418;2023-07-02T04:10:25;99806.00;;;17.03;100.00
3206;BME280;1615;53.602;11.418;2023-07-02T04:12:50;99847.94;;;17.36;100.00
3206;BME280;1615;53.602;11.418;2023-07-02T04:15:15;99618.06;;;16.01;100.00
3206;BME280;1615;53.602;11.418;2023-07-02T04:17:41;99857.41;;;17.50;100.00
3206;BME280;1615;53.602;11.418;2023-07-02T04:20:06;99866.34;;;17.59;100.00
3206;BME280;1615;53.602;11.418;2023-07-02T04:22:32;99847.13;;;17.35;100.00
3206;BME280;1615;53.602;11.418;2023-07-02T04:24:58;99872.88;;;17.51;100.00
3206;BME280;1615;53.602;11.418;2023-07-02T04:27:24;99863.16;;;17.42;100.00
3206;BME280;1615;53.602;11.418;2023-07-02T04:29:49;99868.22;;;17.55;100.00
3206;BME280;1615;53.602;11.418;2023-07-02T04:32:15;99843.91;;;17.49;100.00
3206;BME280;1615;53.602;11.418;2023-07-02T04:34:40;99889.50;;;17.67;100.00
3206;BME280;1615;53.602;11.418;2023-07-02T04:37:09;99753.59;;;16.94;100.00
3206;BME280;1615;53.602;11.418;2023-07-02T04:39:35;99836.78;;;17.48;100.00
3206;BME280;1615;53.602;11.418;2023-07-02T04:42:00;99833.38;;;17.54;100.00
3206;BME280;1615;53.602;11.418;2023-07-02T04:44:26;99889.66;;;17.74;100.00
3206;BME280;1615;53.602;11.418;2023-07-02T04:46:58;99860.25;;;17.88;100.00
3206;BME280;1615;53.602;11.418;2023-07-02T04:49:23;99841.94;;;17.84;100.00
3206;BME280;1615;53.602;11.418;2023-07-02T04:51:49;99773.56;;;17.38;100.00
3206;BME280;1615;53.602;11.418;2023-07-02T04:54:14;99844.34;;;17.85;100.00
3206;BME280;1615;53.602;11.418;2023-07-02T04:56:39;99825.63;;;17.98;100.00
3206;BME280;1615;53.602;11.418;2023-07-02T04:59:04;99837.41;;;17.95;100.00
3206;BME280;1615;53.602;11.418;2023-07-02T05:01:30;99779.94;;;17.92;100.00
3206;BME280;1615;53.602;11.418;2023-07-02T05:03:55;99744.75;;;17.58;100.00
3206;BME280;1615;53.602;11.418;2023-07-02T05:06:20;99837.72;;;18.47;100.00
3206;BME280;1615;53.602;11.418;2023-07-02T05:08:45;99864.88;;;18.57;100.00
3206;BME280;1615;53.602;11.418;2023-07-02T05:11:11;99892.75;;;18.83;100.00
3206;BME280;1615;53.602;11.418;2023-07-02T05:13:36;99797.66;;;18.29;100.00
3206;BME280;1615;53.602;11.418;2023-07-02T05:16:01;99856.38;;;18.69;100.00
3206;BME280;1615;53.602;11.418;2023-07-02T05:18:27;99860.13;;;18.80;100.00
3206;BME280;1615;53.602;11.418;2023-07-02T05:20:53;99891.06;;;19.01;100.00
3206;BME280;1615;53.602;11.418;2023-07-02T05:23:18;99784.66;;;18.52;100.00
3206;BME280;1615;53.602;11.418;2023-07-02T05:25:44;99780.53;;;18.65;100.00
3206;BME280;1615;53.602;11.418;2023-07-02T05:28:11;99857.56;;;19.16;100.00
3206;BME280;1615;53.602;11.418;2023-07-02T05:30:36;99864.47;;;19.48;100.00
3206;BME280;1615;53.602;11.418;2023-07-02T05:33:01;99835.44;;;19.46;100.00
3206;BME280;1615;53.602;11.418;2023-07-02T05:35:26;99860.31;;;19.35;100.00
3206;BME280;1615;53.602;11.418;2023-07-02T05:37:52;99833.75;;;18.93;100.00
3206;BME280;1615;53.602;11.418;2023-07-02T05:40:17;99847.47;;;19.05;100.00
3206;BME280;1615;53.602;11.418;2023-07-02T05:42:42;99865.69;;;19.51;100.00
3206;BME280;1615;53.602;11.418;2023-07-02T05:45:08;99886.13;;;19.88;100.00
3206;BME280;1615;53.602;11.418;2023-07-02T05:47:33;99887.72;;;19.89;100.00
3206;BME280;1615;53.602;11.418;2023-07-02T05:49:59;99863.13;;;19.91;100.00
3206;BME280;1615;53.602;11.418;2023-07-02T05:52:24;99885.13;;;20.03;100.00
3206;BME280;1615;53.602;11.418;2023-07-02T05:54:49;99788.41;;;19.34;100.00
3206;BME280;1615;53.602;11.418;2023-07-02T05:57:15;99857.63;;;19.98;100.00
3206;BME280;1615;53.602;11.418;2023-07-02T05:59:40;99858.13;;;20.33;100.00
3206;BME280;1615;53.602;11.418;2023-07-02T06:02:05;99909.94;;;20.44;100.00
3206;BME280;1615;53.602;11.418;2023-07-02T06:04:31;99861.28;;;20.31;100.00
3206;BME280;1615;53.602;11.418;2023-07-02T06:06:56;99891.84;;;20.61;100.00
3206;BME280;1615;53.602;11.418;2023-07-02T06:09:22;99857.38;;;20.39;100.00
3206;BME280;1615;53.602;11.418;2023-07-02T06:11:48;99812.31;;;20.27;100.00
3206;BME280;1615;53.602;11.418;2023-07-02T06:14:13;99857.16;;;20.55;100.00
3206;BME280;1615;53.602;11.418;2023-07-02T06:16:38;99895.13;;;20.70;100.00
3206;BME280;1615;53.602;11.418;2023-07-02T06:19:04;99862.72;;;20.51;100.00
3206;BME280;1615;53.602;11.418;2023-07-02T06:21:29;99816.66;;;20.24;100.00
3206;BME280;1615;53.602;11.418;2023-07-02T06:23:56;99878.13;;;20.78;100.00
3206;BME280;1615;53.602;11.418;2023-07-02T06:26:22;99851.25;;;20.60;100.00
3206;BME280;1615;53.602;11.418;2023-07-02T06:28:47;99873.38;;;20.46;100.00
3206;BME280;1615;53.602;11.418;2023-07-02T06:31:13;99901.41;;;20.27;100.00
3206;BME280;1615;53.602;11.418;2023-07-02T06:33:39;99898.44;;;20.46;100.00
3206;BME280;1615;53.602;11.418;2023-07-02T06:36:05;99902.41;;;20.45;100.00
3206;BME280;1615;53.602;11.418;2023-07-02T06:38:31;99816.34;;;20.00;100.00
3206;BME280;1615;53.602;11.418;2023-07-02T06:40:56;99843.03;;;20.37;100.00
3206;BME280;1615;53.602;11.418;2023-07-02T06:43:21;99883.16;;;20.66;100.00
3206;BME280;1615;53.602;11.418;2023-07-02T06:45:47;99924.56;;;20.67;100.00
3206;BME280;1615;53.602;11.418;2023-07-02T06:48:13;99861.31;;;20.05;100.00
3206;BME280;1615;53.602;11.418;2023-07-02T06:50:43;99920.38;;;20.51;100.00
3206;BME280;1615;53.602;11.418;2023-07-02T06:53:09;99886.69;;;20.30;100.00
3206;BME280;1615;53.602;11.418;2023-07-02T06:55:34;99901.28;;;20.53;100.00
3206;BME280;1615;53.602;11.418;2023-07-02T06:58:00;99923.75;;;20.67;100.00
3206;BME280;1615;53.602;11.418;2023-07-02T07:00:25;99901.66;;;20.48;100.00
3206;BME280;1615;53.602;11.418;2023-07-02T07:02:50;99913.91;;;20.43;100.00
3206;BME280;1615;53.602;11.418;2023-07-02T07:05:15;99905.94;;;20.42;100.00
3206;BME280;1615;53.602;11.418;2023-07-02T07:07:41;99930.13;;;20.67;100.00
3206;BME280;1615;53.602;11.418;2023-07-02T07:10:06;99887.69;;;20.15;100.00
3206;BME280;1615;53.602;11.418;2023-07-02T07:12:32;99927.06;;;20.43;100.00
3206;BME280;1615;53.602;11.418;2023-07-02T07:14:58;99833.97;;;19.81;100.00
3206;BME280;1615;53.602;11.418;2023-07-02T07:17:23;99721.75;;;19.11;100.00
3206;BME280;1615;53.602;11.418;2023-07-02T07:19:48;99907.97;;;20.12;100.00
3206;BME280;1615;53.602;11.418;2023-07-02T07:22:14;99913.28;;;20.57;100.00
3206;BME280;1615;53.602;11.418;2023-07-02T07:24:41;99916.78;;;20.83;100.00
3206;BME280;1615;53.602;11.418;2023-07-02T07:27:07;99892.16;;;20.89;100.00
3206;BME280;1615;53.602;11.418;2023-07-02T07:29:32;99898.75;;;20.74;100.00
3206;BME280;1615;53.602;11.418;2023-07-02T07:31:58;99892.75;;;20.72;100.00
3206;BME280;1615;53.602;11.418;2023-07-02T07:34:23;99872.75;;;20.63;100.00
3206;BME280;1615;53.602;11.418;2023-07-02T07:36:48;99880.06;;;20.74;100.00
3206;BME280;1615;53.602;11.418;2023-07-02T07:39:13;99937.19;;;20.91;100.00
3206;BME280;1615;53.602;11.418;2023-07-02T07:41:39;99883.66;;;20.75;100.00
3206;BME280;1615;53.602;11.418;2023-07-02T07:44:04;99875.19;;;20.68;98.70
3206;BME280;1615;53.602;11.418;2023-07-02T07:46:29;99888.50;;;20.85;98.82
3206;BME280;1615;53.602;11.418;2023-07-02T07:48:55;99838.03;;;20.50;97.30
3206;BME280;1615;53.602;11.418;2023-07-02T07:51:20;99911.53;;;21.15;94.08
3206;BME280;1615;53.602;11.418;2023-07-02T07:53:45;99893.22;;;21.14;93.56
3206;BME280;1615;53.602;11.418;2023-07-02T07:56:11;99869.22;;;21.06;93.42
3206;BME280;1615;53.602;11.418;2023-07-02T07:58:36;99937.75;;;21.54;92.87
3206;BME280;1615;53.602;11.418;2023-07-02T08:01:02;99904.63;;;21.45;87.05
3206;BME280;1615;53.602;11.418;2023-07-02T08:03:28;99867.03;;;21.25;85.30
3206;BME280;1615;53.602;11.418;2023-07-02T08:05:54;99939.94;;;21.71;80.76
3206;BME280;1615;53.602;11.418;2023-07-02T08:08:19;99838.03;;;20.90;84.68
3206;BME280;1615;53.602;11.418;2023-07-02T08:10:44;99916.63;;;21.53;84.79
3206;BME280;1615;53.602;11.418;2023-07-02T08:13:11;99931.78;;;21.52;77.45
3206;BME280;1615;53.602;11.418;2023-07-02T08:15:37;99922.22;;;21.53;82.95
3206;BME280;1615;53.602;11.418;2023-07-02T08:18:02;99810.34;;;21.11;88.36
3206;BME280;1615;53.602;11.418;2023-07-02T08:20:28;99918.91;;;21.84;75.56
3206;BME280;1615;53.602;11.418;2023-07-02T08:22:54;99879.03;;;21.33;72.92
3206;BME280;1615;53.602;11.418;2023-07-02T08:25:19;99904.88;;;21.73;76.35
3206;BME280;1615;53.602;11.418;2023-07-02T08:27:46;99889.63;;;21.64;72.72
3206;BME280;1615;53.602;11.418;2023-07-02T08:30:12;99933.16;;;21.68;70.77
3206;BME280;1615;53.602;11.418;2023-07-02T08:32:37;99865.69;;;21.09;73.35
3206;BME280;1615;53.602;11.418;2023-07-02T08:35:02;99918.44;;;21.78;77.17
3206;BME280;1615;53.602;11.418;2023-07-02T08:37:28;99907.47;;;22.03;78.11
3206;BME280;1615;53.602;11.418;2023-07-02T08:39:53;99942.81;;;22.46;72.89
3206;BME280;1615;53.602;11.418;2023-07-02T08:42:19;99842.16;;;21.60;67.04
3206;BME280;1615;53.602;11.418;2023-07-02T08:44:53;99935.31;;;21.96;67.68
3206;BME280;1615;53.602;11.418;2023-07-02T08:47:18;99949.63;;;21.91;68.50
3206;BME280;1615;53.602;11.418;2023-07-02T08:49:43;99874.25;;;21.33;68.17
3206;BME280;1615;53.602;11.418;2023-07-02T08:52:09;99885.41;;;21.33;73.91
3206;BME280;1615;53.602;11.418;2023-07-02T08:54:34;99954.97;;;21.63;73.52
3206;BME280;1615;53.602;11.418;2023-07-02T08:56:59;99964.38;;;21.44;77.75
3206;BME280;1615;53.602;11.418;2023-07-02T08:59:30;99896.34;;;20.72;78.18
3206;BME280;1615;53.602;11.418;2023-07-02T09:01:55;100007.94;;;21.19;85.27
3206;BME280;1615;53.602;11.418;2023-07-02T09:04:22;99977.59;;;21.11;79.70
3206;BME280;1615;53.602;11.418;2023-07-02T09:07:10;99988.03;;;21.17;83.02
3206;BME280;1615;53.602;11.418;2023-07-02T09:12:28;99990.56;;;21.33;84.23
3206;BME280;1615;53.602;11.418;2023-07-02T09:14:58;99970.06;;;21.55;86.84
3206;BME280;1615;53.602;11.418;2023-07-02T09:17:28;99970.13;;;21.62;84.06
3206;BME280;1615;53.602;11.418;2023-07-02T09:19:54;99946.69;;;21.23;80.97
3206;BME280;1615;53.602;11.418;2023-07-02T09:22:20;99996.25;;;21.43;82.40
3206;BME280;1615;53.602;11.418;2023-07-02T09:24:53;99905.38;;;20.59;73.68
3206;BME280;1615;53.602;11.418;2023-07-02T09:27:19;99924.66;;;20.78;76.15
3206;BME280;1615;53.602;11.418;2023-07-02T09:29:50;99986.53;;;21.27;77.79
3206;BME280;1615;53.602;11.418;2023-07-02T09:32:24;99911.38;;;21.01;81.99
3206;BME280;1615;53.602;11.418;2023-07-02T09:34:49;99883.50;;;21.01;76.47
3206;BME280;1615;53.602;11.418;2023-07-02T09:37:14;99934.91;;;21.47;72.45
3206;BME280;1615;53.602;11.418;2023-07-02T09:39:40;99869.00;;;21.21;76.40
3206;BME280;1615;53.602;11.418;2023-07-02T09:42:06;99976.94;;;22.22;73.70
3206;BME280;1615;53.602;11.418;2023-07-02T09:44:33;99954.22;;;22.20;76.51
3206;BME280;1615;53.602;11.418;2023-07-02T09:47:08;99990.19;;;22.32;75.86
3206;BME280;1615;53.602;11.418;2023-07-02T09:49:41;100003.38;;;21.81;69.80
3206;BME280;1615;53.602;11.418;2023-07-02T09:52:08;99922.75;;;21.22;68.86
3206;BME280;1615;53.602;11.418;2023-07-02T09:54:35;99883.84;;;20.56;68.47
3206;BME280;1615;53.602;11.418;2023-07-02T09:57:01;100008.41;;;21.25;67.16
3206;BME280;1615;53.602;11.418;2023-07-02T09:59:27;99973.72;;;20.86;70.62
3206;BME280;1615;53.602;11.418;2023-07-02T10:01:52;99837.38;;;19.68;71.24
3206;BME280;1615;53.602;11.418;2023-07-02T10:04:20;100015.41;;;20.79;72.67
3206;BME280;1615;53.602;11.418;2023-07-02T10:09:16;100001.00;;;20.70;74.18
3206;BME280;1615;53.602;11.418;2023-07-02T10:11:42;99978.81;;;20.80;83.30
3206;BME280;1615;53.602;11.418;2023-07-02T10:14:07;99770.44;;;19.54;75.29
3206;BME280;1615;53.602;11.418;2023-07-02T10:16:33;99948.47;;;20.72;69.22
3206;BME280;1615;53.602;11.418;2023-07-02T10:19:09;99878.28;;;20.23;70.75
3206;BME280;1615;53.602;11.418;2023-07-02T10:21:35;99970.88;;;21.12;66.37
3206;BME280;1615;53.602;11.418;2023-07-02T10:24:11;99945.13;;;21.29;69.33
3206;BME280;1615;53.602;11.418;2023-07-02T10:26:36;99952.53;;;21.58;63.99
3206;BME280;1615;53.602;11.418;2023-07-02T10:29:02;99939.84;;;21.64;59.32
3206;BME280;1615;53.602;11.418;2023-07-02T10:31:27;99983.09;;;21.84;60.03
3206;BME280;1615;53.602;11.418;2023-07-02T10:33:52;99878.75;;;21.01;58.93
3206;BME280;1615;53.602;11.418;2023-07-02T10:36:19;99947.41;;;21.16;61.33
3206;BME280;1615;53.602;11.418;2023-07-02T10:38:45;99992.59;;;20.96;63.12
3206;BME280;1615;53.602;11.418;2023-07-02T10:41:12;100078.50;;;20.90;66.96
3206;BME280;1615;53.602;11.418;2023-07-02T10:43:37;100007.66;;;20.91;68.60
3206;BME280;1615;53.602;11.418;2023-07-02T10:46:03;100020.63;;;21.13;69.99
3206;BME280;1615;53.602;11.418;2023-07-02T10:48:30;100055.41;;;21.23;64.73
3206;BME280;1615;53.602;11.418;2023-07-02T10:50:56;100064.56;;;20.90;66.27
3206;BME280;1615;53.602;11.418;2023-07-02T10:53:21;100075.59;;;20.54;69.10
3206;BME280;1615;53.602;11.418;2023-07-02T10:55:53;99902.56;;;19.44;71.04
3206;BME280;1615;53.602;11.418;2023-07-02T10:58:20;100046.13;;;20.53;70.87
3206;BME280;1615;53.602;11.418;2023-07-02T11:00:50;100058.44;;;20.81;72.91
3206;BME280;1615;53.602;11.418;2023-07-02T11:03:20;100059.63;;;21.10;72.64
3206;BME280;1615;53.602;11.418;2023-07-02T11:05:46;100024.63;;;21.12;66.37
3206;BME280;1615;53.602;11.418;2023-07-02T11:08:12;100047.91;;;21.30;63.41
3206;BME280;1615;53.602;11.418;2023-07-02T11:10:38;99902.47;;;20.52;63.77
3206;BME280;1615;53.602;11.418;2023-07-02T11:13:16;100042.69;;;21.65;66.87
3206;BME280;1615;53.602;11.418;2023-07-02T11:15:42;99938.50;;;21.04;63.80
3206;BME280;1615;53.602;11.418;2023-07-02T11:18:10;99855.63;;;20.61;65.68
3206;BME280;1615;53.602;11.418;2023-07-02T11:20:35;100037.09;;;21.62;65.22
3206;BME280;1615;53.602;11.418;2023-07-02T11:23:00;99966.34;;;21.40;68.20
3206;BME280;1615;53.602;11.418;2023-07-02T11:25:26;100042.03;;;21.79;64.24
3206;BME280;1615;53.602;11.418;2023-07-02T11:28:02;100037.38;;;21.93;65.43
3206;BME280;1615;53.602;11.418;2023-07-02T11:30:27;100041.50;;;22.10;72.80
3206;BME280;1615;53.602;11.418;2023-07-02T11:32:54;99987.97;;;21.97;63.91
3206;BME280;1615;53.602;11.418;2023-07-02T11:35:20;100021.63;;;22.22;60.16
3206;BME280;1615;53.602;11.418;2023-07-02T11:37:46;100037.81;;;22.53;61.45
3206;BME280;1615;53.602;11.418;2023-07-02T11:40:14;99925.63;;;21.76;60.18
3206;BME280;1615;53.602;11.418;2023-07-02T11:42:40;100035.25;;;22.27;60.93
3206;BME280;1615;53.602;11.418;2023-07-02T11:45:06;100020.78;;;22.14;62.64
3206;BME280;1615;53.602;11.418;2023-07-02T11:47:31;100024.44;;;22.25;60.50
3206;BME280;1615;53.602;11.418;2023-07-02T11:49:57;100029.69;;;22.34;60.70
3206;BME280;1615;53.602;11.418;2023-07-02T11:52:24;99991.25;;;22.10;60.68
3206;BME280;1615;53.602;11.418;2023-07-02T11:54:49;100039.00;;;22.48;56.83
3206;BME280;1615;53.602;11.418;2023-07-02T11:57:14;100065.72;;;22.46;56.75
3206;BME280;1615;53.602;11.418;2023-07-02T11:59:42;99950.38;;;21.34;56.71
3206;BME280;1615;53.602;11.418;2023-07-02T12:02:07;99950.59;;;21.18;55.31
3206;BME280;1615;53.602;11.418;2023-07-02T12:04:32;100080.78;;;21.84;57.00
3206;BME280;1615;53.602;11.418;2023-07-02T12:06:58;99966.66;;;21.32;56.34
3206;BME280;1615;53.602;11.418;2023-07-02T12:09:23;100071.47;;;22.16;60.11
3206;BME280;1615;53.602;11.418;2023-07-02T12:11:48;100075.22;;;22.38;56.51
3206;BME280;1615;53.602;11.418;2023-07-02T12:14:14;99993.53;;;21.94;56.69
3206;BME280;1615;53.602;11.418;2023-07-02T12:16:39;100037.78;;;22.46;54.74
3206;BME280;1615;53.602;11.418;2023-07-02T12:19:04;99982.00;;;21.52;55.29
3206;BME280;1615;53.602;11.418;2023-07-02T12:21:30;100075.91;;;22.24;56.98
3206;BME280;1615;53.602;11.418;2023-07-02T12:23:55;100072.94;;;22.00;58.18
3206;BME280;1615;53.602;11.418;2023-07-02T12:26:20;100090.03;;;21.95;57.44
3206;BME280;1615;53.602;11.418;2023-07-02T12:28:46;100100.00;;;21.96;55.28
3206;BME280;1615;53.602;11.418;2023-07-02T12:31:11;100065.91;;;21.73;54.36
3206;BME280;1615;53.602;11.418;2023-07-02T12:33:38;100039.66;;;21.41;54.15
3206;BME280;1615;53.602;11.418;2023-07-02T12:36:03;100082.81;;;21.90;56.90
3206;BME280;1615;53.602;11.418;2023-07-02T12:38:29;100109.97;;;21.97;53.99
3206;BME280;1615;53.602;11.418;2023-07-02T12:40:54;100048.22;;;21.58;53.41
3206;BME280;1615;53.602;11.418;2023-07-02T12:43:19;100065.59;;;21.81;56.29
3206;BME280;1615;53.602;11.418;2023-07-02T12:45:45;100084.75;;;21.83;58.46
3206;BME280;1615;53.602;11.418;2023-07-02T12:48:10;100084.91;;;21.64;57.36
3206;BME280;1615;53.602;11.418;2023-07-02T12:50:37;100081.16;;;21.86;57.87
3206;BME280;1615;53.602;11.418;2023-07-02T12:53:03;99984.97;;;21.33;58.24
3206;BME280;1615;53.602;11.418;2023-07-02T12:55:29;100060.59;;;22.04;60.46
3206;BME280;1615;53.602;11.418;2023-07-02T12:57:55;99990.41;;;22.02;57.74
3206;BME280;1615;53.602;11.418;2023-07-02T13:00:20;100054.81;;;22.95;58.29
3206;BME280;1615;53.602;11.418;2023-07-02T13:02:46;100088.38;;;23.02;56.66